Time;durP1;ratioP1;P1;durP2;ratioP2;P2;SDS_P1;SDS_P2;PMS_P1;PMS_P2;Temp;Humidity;BMP_temperature;BMP_pressure;BME280_temperature;BME280_humidity;BME280_pressure;Samples;Min_cycle;Max_cycle;Signal;HPM_P1;HPM_P2
2022/09/08 00:00:18;;;;;;;36.13;32.92;;;16.40;99.90;;;;;;5067627;28;20033;-89
2022/09/08 00:02:44;;;;;;;33.97;30.88;;;16.40;99.90;;;;;;5063447;28;20640;-89
2022/09/08 00:05:13;;;;;;;35.95;32.55;;;16.40;99.90;;;;;;5084156;28;20275;-90
2022/09/08 00:07:39;;;;;;;35.85;32.45;;;16.40;99.90;;;;;;5087287;28;20137;-91
2022/09/08 00:10:05;;;;;;;37.55;34.05;;;16.40;99.90;;;;;;5086476;28;20458;-91
2022/09/08 00:12:30;;;;;;;39.13;35.58;;;16.30;99.90;;;;;;5088301;28;20040;-90
2022/09/08 00:14:58;;;;;;;38.33;34.88;;;16.40;99.90;;;;;;5086490;28;20066;-90
2022/09/08 00:17:24;;;;;;;40.40;36.70;;;16.30;99.90;;;;;;5082784;28;20039;-89
2022/09/08 00:19:50;;;;;;;41.10;37.28;;;16.40;99.90;;;;;;5070542;28;20052;-90
2022/09/08 00:22:15;;;;;;;83.18;75.55;;;16.30;99.90;;;;;;5086525;28;20036;-90
2022/09/08 00:24:41;;;;;;;41.03;37.28;;;16.30;99.90;;;;;;5086002;28;20046;-88
2022/09/08 00:27:07;;;;;;;43.13;38.67;;;16.30;99.90;;;;;;5070048;28;20048;-89
2022/09/08 00:29:33;;;;;;;43.53;39.38;;;16.40;99.90;;;;;;5088444;28;20392;-89
2022/09/08 00:31:59;;;;;;;41.25;37.25;;;16.40;99.90;;;;;;5087054;28;20055;-89
2022/09/08 00:34:24;;;;;;;42.13;38.33;;;16.40;99.90;;;;;;5088393;28;20036;-89
2022/09/08 00:36:51;;;;;;;40.78;37.05;;;16.30;99.90;;;;;;5082398;28;20043;-90
2022/09/08 00:39:17;;;;;;;40.70;36.65;;;16.30;99.90;;;;;;5089728;28;20058;-90
2022/09/08 00:41:43;;;;;;;41.25;37.45;;;16.30;99.90;;;;;;5091927;28;20119;-89
2022/09/08 00:44:35;;;;;;;42.40;38.60;;;16.30;99.90;;;;;;5090206;28;20065;-90
2022/09/08 00:47:02;;;;;;;41.15;37.35;;;16.40;99.90;;;;;;5070401;28;20489;-89
2022/09/08 00:49:28;;;;;;;41.47;37.78;;;16.30;99.90;;;;;;5092361;28;20040;-90
2022/09/08 00:51:56;;;;;;;42.03;38.10;;;16.40;99.90;;;;;;5071934;28;20054;-89
2022/09/08 00:54:22;;;;;;;43.28;39.17;;;16.30;99.90;;;;;;5089250;28;20059;-89
2022/09/08 00:56:49;;;;;;;43.75;39.53;;;16.40;99.90;;;;;;5091735;28;20131;-89
2022/09/08 00:59:18;;;;;;;43.72;39.72;;;16.40;99.90;;;;;;5090139;28;20051;-90
2022/09/08 01:01:44;;;;;;;46.83;42.53;;;16.40;99.90;;;;;;5093970;28;20044;-89
2022/09/08 01:04:10;;;;;;;49.25;44.53;;;16.50;99.90;;;;;;5102928;27;20422;-88
2022/09/08 01:12:55;;;;;;;48.65;44.17;;;16.60;99.90;;;;;;5086082;27;20055;-88
2022/09/08 01:15:26;;;;;;;51.70;46.47;;;16.60;99.90;;;;;;5097588;28;20044;-90
2022/09/08 01:17:54;;;;;;;47.47;42.97;;;16.70;99.90;;;;;;5100754;27;20168;-91
2022/09/08 01:20:31;;;;;;;48.67;44.22;;;16.70;99.90;;;;;;5096044;28;20046;-88
2022/09/08 01:23:20;;;;;;;49.33;44.75;;;16.70;99.90;;;;;;5126812;27;20087;-89
2022/09/08 01:26:06;;;;;;;48.80;44.17;;;16.80;99.90;;;;;;5118537;27;20051;-90
2022/09/08 01:28:45;;;;;;;49.25;44.63;;;16.80;99.90;;;;;;5119321;27;20051;-89
2022/09/08 01:31:12;;;;;;;46.80;42.45;;;16.80;99.90;;;;;;5106847;27;20050;-90
2022/09/08 01:33:41;;;;;;;49.20;44.42;;;16.90;99.90;;;;;;5121984;27;20035;-90
2022/09/08 01:36:11;;;;;;;50.83;46.17;;;16.90;99.90;;;;;;5097652;27;20039;-89
2022/09/08 01:38:37;;;;;;;46.83;42.50;;;16.90;99.90;;;;;;5097164;27;20047;-90
2022/09/08 01:41:03;;;;;;;48.80;44.33;;;16.90;99.90;;;;;;5092196;28;20039;-90
2022/09/08 01:43:28;;;;;;;47.50;43.00;;;17.00;99.90;;;;;;5093704;28;20039;-88
2022/09/08 01:45:56;;;;;;;50.38;45.60;;;17.00;99.90;;;;;;5094234;27;20092;-89
2022/09/08 01:48:22;;;;;;;48.15;43.80;;;17.00;99.90;;;;;;5091423;28;20067;-89
2022/09/08 01:50:47;;;;;;;46.55;42.30;;;17.00;99.90;;;;;;5103686;28;20035;-89
2022/09/08 01:53:13;;;;;;;47.88;43.65;;;17.10;99.90;;;;;;5097974;28;20123;-89
2022/09/08 01:55:38;;;;;;;49.20;44.53;;;17.10;99.90;;;;;;5108038;28;20039;-88
2022/09/08 01:58:04;;;;;;;47.67;43.17;;;17.10;99.90;;;;;;5089864;28;20070;-89
2022/09/08 02:00:30;;;;;;;50.05;45.38;;;17.10;99.90;;;;;;5115125;27;20036;-90
2022/09/08 02:02:55;;;;;;;54.20;48.65;;;17.10;99.90;;;;;;5110279;28;20097;-88
2022/09/08 02:05:21;;;;;;;49.05;44.47;;;17.20;99.90;;;;;;5093263;28;20127;-88
2022/09/08 02:07:46;;;;;;;49.90;45.30;;;17.10;99.90;;;;;;5091947;28;20553;-87
2022/09/08 02:10:13;;;;;;;50.63;45.58;;;17.20;99.90;;;;;;5091699;28;20051;-87
2022/09/08 02:12:39;;;;;;;49.97;45.28;;;17.20;99.90;;;;;;5083631;27;20050;-87
2022/09/08 02:15:06;;;;;;;49.78;45.13;;;17.20;99.90;;;;;;5124528;27;20480;-87
2022/09/08 02:17:32;;;;;;;49.15;44.65;;;17.20;99.90;;;;;;5103063;27;20047;-87
2022/09/08 02:19:58;;;;;;;49.30;44.72;;;17.20;99.90;;;;;;5120256;27;20047;-87
2022/09/08 02:22:24;;;;;;;47.85;43.33;;;17.20;99.90;;;;;;5125680;27;20042;-87
2022/09/08 02:24:50;;;;;;;49.15;44.63;;;17.10;99.90;;;;;;5130180;27;20047;-88
2022/09/08 02:27:15;;;;;;;46.80;42.30;;;17.20;99.90;;;;;;5115047;27;20054;-87
2022/09/08 02:29:41;;;;;;;48.85;44.20;;;17.20;99.90;;;;;;5097286;27;20043;-88
2022/09/08 02:32:07;;;;;;;49.05;44.47;;;17.20;99.90;;;;;;5117163;27;20054;-88
2022/09/08 02:34:32;;;;;;;49.90;45.28;;;17.20;99.90;;;;;;5113329;27;20467;-89
2022/09/08 02:36:58;;;;;;;48.58;44.20;;;17.20;99.90;;;;;;5091232;27;20127;-87
2022/09/08 02:39:24;;;;;;;49.15;44.72;;;17.10;99.90;;;;;;5092801;28;20392;-88
2022/09/08 02:41:49;;;;;;;49.65;45.17;;;17.10;99.90;;;;;;5111902;27;20189;-88
2022/09/08 02:44:15;;;;;;;49.47;44.75;;;17.20;99.90;;;;;;5117387;27;20031;-88
2022/09/08 02:46:42;;;;;;;50.65;45.95;;;17.10;99.90;;;;;;5078404;27;20039;-89
2022/09/08 02:49:10;;;;;;;50.88;46.08;;;17.20;99.90;;;;;;5077751;28;20043;-88
2022/09/08 02:51:36;;;;;;;51.05;46.35;;;17.20;99.90;;;;;;5092779;28;20385;-89
2022/09/08 02:54:02;;;;;;;52.13;47.22;;;17.20;99.90;;;;;;5100815;27;20115;-86
2022/09/08 02:56:27;;;;;;;51.58;46.88;;;17.20;99.90;;;;;;5102827;27;20439;-87
2022/09/08 02:58:54;;;;;;;51.17;46.28;;;17.20;99.90;;;;;;5080776;27;20479;-87
2022/09/08 03:01:20;;;;;;;50.15;45.55;;;17.20;99.90;;;;;;5076428;28;20039;-87
2022/09/08 03:03:46;;;;;;;50.85;46.25;;;17.10;99.90;;;;;;5112353;27;20049;-87
2022/09/08 03:06:12;;;;;;;52.42;47.53;;;17.20;99.90;;;;;;5130758;27;20130;-87
2022/09/08 03:08:37;;;;;;;51.38;46.55;;;17.10;99.90;;;;;;5086138;28;20047;-87
2022/09/08 03:11:04;;;;;;;53.17;48.22;;;17.20;99.90;;;;;;5096163;28;20040;-86
2022/09/08 03:13:30;;;;;;;53.80;48.75;;;17.20;99.90;;;;;;5093191;28;20051;-87
2022/09/08 03:15:56;;;;;;;53.20;48.15;;;17.20;99.90;;;;;;5091944;28;20122;-86
2022/09/08 03:18:22;;;;;;;51.00;46.40;;;17.20;99.90;;;;;;5122705;27;20158;-87
2022/09/08 03:20:58;;;;;;;52.40;47.58;;;17.20;99.90;;;;;;5117451;27;20085;-87
2022/09/08 03:23:24;;;;;;;51.40;46.40;;;17.20;99.90;;;;;;5097729;27;20126;-88
2022/09/08 03:25:50;;;;;;;54.33;49.08;;;17.20;99.90;;;;;;5103318;28;20126;-87
2022/09/08 03:28:20;;;;;;;53.95;49.03;;;17.20;99.90;;;;;;5116330;27;20039;-86
2022/09/08 03:30:45;;;;;;;54.28;49.22;;;17.20;99.90;;;;;;5119135;27;20044;-87
2022/09/08 03:33:11;;;;;;;53.13;48.00;;;17.20;99.90;;;;;;5101977;27;20057;-87
2022/09/08 03:35:37;;;;;;;54.08;49.08;;;17.20;99.90;;;;;;5111332;27;20040;-86
2022/09/08 03:38:03;;;;;;;53.03;48.20;;;17.20;99.90;;;;;;5100429;27;20100;-87
2022/09/08 03:40:28;;;;;;;53.50;48.47;;;17.20;99.90;;;;;;5128121;27;20083;-87
2022/09/08 03:42:54;;;;;;;52.78;47.88;;;17.10;99.90;;;;;;5123002;27;20035;-86
2022/09/08 03:45:20;;;;;;;51.67;46.75;;;17.20;99.90;;;;;;5110483;28;20515;-86
2022/09/08 03:47:46;;;;;;;54.15;49.13;;;17.10;99.90;;;;;;5104354;27;20057;-87
2022/09/08 03:50:15;;;;;;;53.05;47.95;;;17.10;99.90;;;;;;5105916;28;20032;-86
2022/09/08 03:52:41;;;;;;;53.22;48.22;;;17.10;99.90;;;;;;5119630;27;20040;-87
2022/09/08 03:55:08;;;;;;;50.83;46.05;;;17.10;99.90;;;;;;5114943;27;20107;-86
2022/09/08 03:57:34;;;;;;;53.55;48.15;;;17.10;99.90;;;;;;5111081;27;20078;-86
2022/09/08 04:00:00;;;;;;;52.20;47.28;;;17.10;99.90;;;;;;5090480;28;20407;-87
2022/09/08 04:02:27;;;;;;;51.45;46.67;;;17.10;99.90;;;;;;5091703;28;20039;-87
2022/09/08 04:04:55;;;;;;;52.35;47.22;;;17.00;99.90;;;;;;5083652;28;20078;-86
2022/09/08 04:07:23;;;;;;;52.60;47.67;;;17.00;99.90;;;;;;5094311;28;20043;-86
2022/09/08 04:09:49;;;;;;;51.78;46.83;;;16.90;99.90;;;;;;5061504;28;20387;-86
2022/09/08 04:12:15;;;;;;;51.50;46.70;;;17.00;99.90;;;;;;5092291;28;20163;-86
2022/09/08 04:14:42;;;;;;;51.88;46.97;;;17.00;99.90;;;;;;5095458;28;20044;-86
2022/09/08 04:17:09;;;;;;;53.33;48.33;;;16.90;99.90;;;;;;5076701;28;20058;-87
2022/09/08 04:19:35;;;;;;;54.78;49.25;;;16.90;99.90;;;;;;5095756;28;20040;-87
2022/09/08 04:22:01;;;;;;;55.40;50.00;;;16.90;99.90;;;;;;5093125;28;20054;-87
2022/09/08 04:24:27;;;;;;;55.35;50.13;;;16.90;99.90;;;;;;5108789;27;20039;-86
2022/09/08 04:26:53;;;;;;;55.20;49.97;;;16.90;99.90;;;;;;5111730;27;20524;-86
2022/09/08 04:29:18;;;;;;;54.10;49.00;;;16.90;99.90;;;;;;5111147;27;20459;-85
2022/09/08 04:31:44;;;;;;;54.38;49.38;;;16.90;99.90;;;;;;5119805;27;20074;-87
2022/09/08 04:34:12;;;;;;;56.55;51.08;;;16.90;99.90;;;;;;5121866;27;20128;-86
2022/09/08 04:36:38;;;;;;;55.03;49.60;;;16.90;99.90;;;;;;5124932;27;20081;-86
2022/09/08 04:39:03;;;;;;;54.45;49.15;;;16.90;99.90;;;;;;5123816;27;20099;-86
2022/09/08 04:41:30;;;;;;;54.75;49.45;;;16.90;99.90;;;;;;5111021;27;20099;-87
2022/09/08 04:44:00;;;;;;;56.92;51.30;;;16.90;99.90;;;;;;5129154;27;20027;-86
2022/09/08 04:46:26;;;;;;;59.25;53.35;;;16.90;99.90;;;;;;5116831;27;20039;-87
2022/09/08 04:48:53;;;;;;;57.97;52.38;;;16.80;99.90;;;;;;5083606;27;20133;-88
2022/09/08 04:51:19;;;;;;;55.53;50.03;;;16.80;99.90;;;;;;5121135;27;20067;-88
2022/09/08 04:53:45;;;;;;;59.20;53.28;;;16.80;99.90;;;;;;5089466;27;20039;-87
2022/09/08 04:56:12;;;;;;;55.55;50.10;;;16.80;99.90;;;;;;5084948;28;20093;-87
2022/09/08 04:58:41;;;;;;;57.40;51.90;;;16.80;99.90;;;;;;5087426;27;20051;-88
2022/09/08 05:01:15;;;;;;;57.47;51.78;;;16.70;99.90;;;;;;5102295;28;20155;-87
2022/09/08 05:03:41;;;;;;;60.38;54.35;;;16.70;99.90;;;;;;5116815;27;20050;-88
2022/09/08 05:06:14;;;;;;;61.60;55.10;;;16.70;99.90;;;;;;5105837;27;20063;-87
2022/09/08 05:08:48;;;;;;;60.00;53.90;;;16.70;99.90;;;;;;5134205;27;20064;-89
2022/09/08 05:11:14;;;;;;;64.85;57.85;;;16.70;99.90;;;;;;5099153;28;20400;-90
2022/09/08 05:13:40;;;;;;;62.35;55.83;;;16.70;99.90;;;;;;5078718;28;20399;-89
2022/09/08 05:16:13;;;;;;;61.63;55.05;;;16.80;99.90;;;;;;5077184;28;20043;-89
2022/09/08 05:18:39;;;;;;;63.33;56.85;;;16.80;99.90;;;;;;5093535;28;20508;-90
2022/09/08 05:21:06;;;;;;;65.38;58.13;;;16.80;99.90;;;;;;5113466;27;20031;-90
2022/09/08 05:23:32;;;;;;;64.97;58.00;;;16.80;99.90;;;;;;5076701;27;20047;-89
2022/09/08 05:26:06;;;;;;;61.38;55.05;;;16.80;99.90;;;;;;5094913;28;20437;-90
2022/09/08 05:28:35;;;;;;;62.28;55.60;;;16.80;99.90;;;;;;5098857;27;20130;-91
2022/09/08 05:31:01;;;;;;;66.07;59.20;;;16.80;99.90;;;;;;5127530;27;20365;-92
2022/09/08 05:33:27;;;;;;;65.30;58.22;;;16.80;99.90;;;;;;5094508;27;20054;-90
2022/09/08 05:35:53;;;;;;;63.35;56.63;;;16.80;99.90;;;;;;5128804;27;20043;-90
2022/09/08 05:38:20;;;;;;;62.03;55.17;;;16.80;99.90;;;;;;5081823;27;20035;-89
2022/09/08 05:40:46;;;;;;;63.33;56.83;;;16.90;99.90;;;;;;5097310;28;20046;-89
2022/09/08 05:43:12;;;;;;;62.33;56.00;;;16.90;99.90;;;;;;5112627;28;20044;-90
2022/09/08 05:45:37;;;;;;;63.50;56.60;;;16.90;99.90;;;;;;5097684;28;20051;-91
2022/09/08 05:48:03;;;;;;;62.97;56.33;;;16.90;99.90;;;;;;5106093;28;20571;-89
2022/09/08 05:50:34;;;;;;;66.60;58.03;;;16.90;99.90;;;;;;5110801;27;20043;-93
2022/09/08 05:53:01;;;;;;;66.22;57.97;;;16.90;99.90;;;;;;5098913;27;20035;-91
2022/09/08 05:55:28;;;;;;;61.95;55.45;;;16.90;99.90;;;;;;5117456;27;20048;-90
2022/09/08 05:57:53;;;;;;;68.20;60.17;;;16.90;99.90;;;;;;5093319;28;20441;-89
2022/09/08 06:00:21;;;;;;;85.45;61.67;;;16.90;99.90;;;;;;5100908;28;20064;-90
2022/09/08 06:02:52;;;;;;;80.32;63.00;;;16.90;99.90;;;;;;5105154;27;20123;-91
2022/09/08 06:05:19;;;;;;;86.80;64.10;;;16.90;99.90;;;;;;5083707;28;20055;-91
2022/09/08 06:07:45;;;;;;;70.80;59.60;;;16.80;99.90;;;;;;5093028;28;20055;-91
2022/09/08 06:10:11;;;;;;;75.68;60.08;;;16.90;99.90;;;;;;5090008;28;20051;-92
2022/09/08 06:12:36;;;;;;;63.83;56.92;;;16.80;99.90;;;;;;5089116;28;20058;-90
2022/09/08 06:15:02;;;;;;;71.85;59.05;;;16.90;99.90;;;;;;5095419;28;20160;-90
2022/09/08 06:17:28;;;;;;;65.00;57.92;;;16.90;99.90;;;;;;5088507;28;21223;-89
2022/09/08 06:19:53;;;;;;;63.80;56.90;;;16.90;99.90;;;;;;5100582;28;20043;-96
2022/09/08 06:22:19;;;;;;;63.33;56.60;;;17.00;99.90;;;;;;5100690;28;20044;-88
2022/09/08 06:24:44;;;;;;;64.28;57.25;;;17.00;99.90;;;;;;5093690;28;20051;-88
2022/09/08 06:27:26;;;;;;;66.82;56.67;;;17.00;99.90;;;;;;5098094;28;20044;-90
2022/09/08 06:29:51;;;;;;;;;;;17.00;99.90;;;;;;5090028;28;20123;-89
2022/09/08 06:32:42;;;;;;;60.10;53.80;;;16.90;99.90;;;;;;5119456;27;19916;-90
2022/09/08 06:35:21;;;;;;;61.35;54.38;;;16.90;99.90;;;;;;5081064;28;20048;-88
2022/09/08 06:37:55;;;;;;;58.58;51.72;;;17.00;99.90;;;;;;5098654;28;20071;-89
2022/09/08 06:40:40;;;;;;;61.72;52.90;;;17.00;99.90;;;;;;5112059;28;20031;-88
2022/09/08 06:43:20;;;;;;;54.58;48.33;;;17.00;99.90;;;;;;5089127;28;20059;-90
2022/09/08 06:45:51;;;;;;;54.78;48.83;;;17.10;99.90;;;;;;5089580;28;20385;-89
2022/09/08 06:48:33;;;;;;;53.65;47.08;;;17.00;99.90;;;;;;5072949;28;20059;-89
2022/09/08 06:51:11;;;;;;;59.78;49.08;;;17.10;99.90;;;;;;5090080;28;20044;-89
2022/09/08 06:54:01;;;;;;;49.63;44.38;;;17.10;99.90;;;;;;5072714;28;20040;-89
2022/09/08 06:56:54;;;;;;;48.30;43.13;;;17.10;99.90;;;;;;5039888;28;20056;-89
2022/09/08 06:59:51;;;;;;;87.38;49.88;;;17.10;99.90;;;;;;5071604;28;20040;-88
2022/09/08 07:02:39;;;;;;;55.90;48.70;;;17.10;99.90;;;;;;5088881;28;20051;-87
2022/09/08 07:05:28;;;;;;;57.70;51.53;;;17.10;99.90;;;;;;5106440;28;20044;-87
2022/09/08 07:08:12;;;;;;;55.75;48.95;;;17.10;99.90;;;;;;5091374;28;20051;-89
2022/09/08 07:10:50;;;;;;;57.05;50.85;;;17.20;99.90;;;;;;5092302;28;20047;-88
2022/09/08 07:13:49;;;;;;;59.30;50.60;;;17.30;99.90;;;;;;5074556;28;20039;-86
2022/09/08 07:16:41;;;;;;;58.38;51.20;;;17.20;99.90;;;;;;5110130;28;20065;-87
2022/09/08 07:19:51;;;;;;;60.97;52.75;;;17.20;99.90;;;;;;5075426;28;20051;-88
2022/09/08 07:22:31;;;;;;;63.60;53.03;;;17.20;99.90;;;;;;5091993;28;20050;-87
2022/09/08 07:25:09;;;;;;;65.95;54.90;;;17.20;99.90;;;;;;5074339;28;20185;-87
2022/09/08 07:27:36;;;;;;;68.25;54.92;;;17.20;99.90;;;;;;5073944;28;20052;-88
2022/09/08 07:30:04;;;;;;;65.90;54.58;;;17.20;99.90;;;;;;5072438;28;20032;-87
2022/09/08 07:32:34;;;;;;;65.35;53.35;;;17.20;99.90;;;;;;5107567;28;20062;-87
2022/09/08 07:35:08;;;;;;;61.58;50.90;;;17.30;99.90;;;;;;5109631;28;20043;-87
2022/09/08 07:37:44;;;;;;;57.22;49.72;;;17.30;99.90;;;;;;5075236;28;20077;-87
2022/09/08 07:40:38;;;;;;;55.35;48.05;;;17.30;99.90;;;;;;5091652;28;20054;-87
2022/09/08 07:43:11;;;;;;;55.33;49.30;;;17.30;99.90;;;;;;5109313;28;20113;-87
2022/09/08 07:45:48;;;;;;;56.13;49.88;;;17.30;99.90;;;;;;5091386;28;20047;-88
2022/09/08 07:48:22;;;;;;;61.15;50.70;;;17.30;99.90;;;;;;5073769;28;20130;-87
2022/09/08 07:50:58;;;;;;;56.80;48.17;;;17.30;99.90;;;;;;5090972;28;20040;-88
2022/09/08 07:53:35;;;;;;;55.80;49.00;;;17.30;99.90;;;;;;5091657;28;20051;-88
2022/09/08 07:56:21;;;;;;;53.65;47.78;;;17.30;99.90;;;;;;5073872;28;20089;-88
2022/09/08 07:59:19;;;;;;;57.30;48.97;;;17.30;99.90;;;;;;5074409;28;20407;-87
2022/09/08 08:02:22;;;;;;;56.40;48.42;;;17.30;99.90;;;;;;5072563;28;20411;-87
2022/09/08 08:04:59;;;;;;;60.75;50.15;;;17.30;99.90;;;;;;5073922;28;20059;-87
2022/09/08 08:07:40;;;;;;;56.40;50.30;;;17.30;99.90;;;;;;5091716;28;20053;-87
2022/09/08 08:10:13;;;;;;;57.72;50.67;;;17.40;99.90;;;;;;5075974;28;20101;-89
2022/09/08 08:13:01;;;;;;;69.88;52.30;;;17.40;99.90;;;;;;5090069;28;20078;-87
2022/09/08 08:15:43;;;;;;;58.65;50.60;;;17.40;99.90;;;;;;5089715;28;20101;-88
2022/09/08 08:18:26;;;;;;;61.63;52.00;;;17.40;99.90;;;;;;5091926;22;20059;-89
2022/09/08 08:21:03;;;;;;;61.08;51.97;;;17.40;99.90;;;;;;5077455;28;20063;-92
2022/09/08 08:23:45;;;;;;;62.05;53.45;;;17.30;99.90;;;;;;5071269;28;20044;-88
2022/09/08 08:26:32;;;;;;;62.88;54.00;;;17.40;99.90;;;;;;5088829;28;20136;-89
2022/09/08 08:29:26;;;;;;;63.78;52.97;;;17.40;99.90;;;;;;5069577;28;20130;-89
2022/09/08 08:32:01;;;;;;;59.13;51.33;;;17.40;99.90;;;;;;5089401;28;20044;-89
2022/09/08 08:34:51;;;;;;;62.63;51.78;;;17.30;99.90;;;;;;5082543;28;20111;-90
2022/09/08 08:37:22;;;;;;;61.50;50.28;;;17.40;99.90;;;;;;5048825;28;20052;-91
2022/09/08 08:39:52;;;;;;;60.60;48.17;;;17.40;99.90;;;;;;5069107;28;20123;-90
2022/09/08 08:42:42;;;;;;;58.92;46.25;;;17.40;99.90;;;;;;5092826;28;20032;-86
2022/09/08 08:45:39;;;;;;;50.53;42.17;;;17.40;99.90;;;;;;5087143;28;20040;-88
2022/09/08 08:48:22;;;;;;;48.55;37.30;;;17.40;99.90;;;;;;5060422;28;20051;-87
2022/09/08 08:51:15;;;;;;;43.55;35.15;;;17.40;99.90;;;;;;5090945;28;20039;-86
2022/09/08 08:53:52;;;;;;;35.60;29.70;;;17.40;99.90;;;;;;5094119;28;20059;-89
2022/09/08 08:56:26;;;;;;;37.67;28.98;;;17.40;99.90;;;;;;5072199;28;20154;-88
2022/09/08 08:59:23;;;;;;;35.30;27.52;;;17.40;99.90;;;;;;5085332;28;20112;-89
2022/09/08 09:02:22;;;;;;;29.52;24.88;;;17.40;99.90;;;;;;5089798;28;20048;-90
2022/09/08 09:05:20;;;;;;;30.30;25.58;;;17.40;99.90;;;;;;5111905;28;20051;-89
2022/09/08 09:08:18;;;;;;;27.92;24.65;;;17.40;99.90;;;;;;5103676;28;20093;-88
2022/09/08 09:10:49;;;;;;;29.02;24.35;;;17.40;99.90;;;;;;5091867;28;20043;-86
2022/09/08 09:13:39;;;;;;;28.55;23.08;;;17.40;99.90;;;;;;5092336;28;20052;-87
2022/09/08 09:16:36;;;;;;;27.73;21.83;;;17.50;99.90;;;;;;5074399;28;20044;-88
2022/09/08 09:19:09;;;;;;;23.85;21.33;;;17.50;99.90;;;;;;5124501;27;20121;-90
2022/09/08 09:21:58;;;;;;;23.23;19.73;;;17.50;99.90;;;;;;5102875;28;20040;-90
2022/09/08 09:24:45;;;;;;;20.80;18.58;;;17.50;99.90;;;;;;5097055;28;20127;-90
2022/09/08 09:27:43;;;;;;;21.83;19.17;;;17.50;99.90;;;;;;5087616;28;20056;-89
2022/09/08 09:30:12;;;;;;;21.15;18.77;;;17.60;99.90;;;;;;5070273;28;20055;-89
2022/09/08 09:32:57;;;;;;;22.17;19.13;;;17.50;99.90;;;;;;5087145;28;20048;-88
2022/09/08 09:36:00;;;;;;;27.13;20.55;;;17.50;99.90;;;;;;5093922;28;20185;-89
2022/09/08 09:38:48;;;;;;;23.33;20.58;;;17.60;99.90;;;;;;5089910;28;20136;-92
2022/09/08 09:41:47;;;;;;;22.05;19.33;;;17.60;99.90;;;;;;5088850;28;20768;-89
2022/09/08 09:44:40;;;;;;;21.50;17.20;;;17.60;99.90;;;;;;5100856;28;20062;-89
2022/09/08 09:47:24;;;;;;;16.35;13.40;;;17.50;99.90;;;;;;5073647;28;20500;-91
2022/09/08 09:50:09;;;;;;;13.98;12.02;;;17.60;99.90;;;;;;5073691;28;20054;-88
2022/09/08 09:52:56;;;;;;;13.35;11.45;;;17.50;99.90;;;;;;5091198;28;20032;-87
2022/09/08 09:55:24;;;;;;;14.43;11.38;;;17.50;99.90;;;;;;5103307;28;20055;-88
2022/09/08 09:57:56;;;;;;;14.10;11.43;;;17.40;99.90;;;;;;5087172;28;20119;-88
2022/09/08 10:00:27;;;;;;;14.57;11.20;;;17.40;99.90;;;;;;5089541;28;20066;-87
2022/09/08 10:03:38;;;;;;;15.32;11.85;;;17.40;99.90;;;;;;5088616;28;20036;-89
2022/09/08 10:06:13;;;;;;;;;;;17.40;99.90;;;;;;5072639;28;20430;-89
2022/09/08 10:09:03;;;;;;;14.68;10.50;;;17.30;99.90;;;;;;5095269;27;19927;-89
2022/09/08 10:12:00;;;;;;;11.85;8.70;;;17.40;99.90;;;;;;5087113;28;20454;-89
2022/09/08 10:14:51;;;;;;;9.95;6.45;;;17.40;99.90;;;;;;5071432;28;20043;-88
2022/09/08 10:17:36;;;;;;;8.52;5.50;;;17.40;99.90;;;;;;5091531;28;20131;-89
2022/09/08 10:20:19;;;;;;;10.90;5.93;;;17.30;99.90;;;;;;5090444;28;20098;-88
2022/09/08 10:23:00;;;;;;;9.20;5.38;;;17.40;99.90;;;;;;5088604;28;20054;-90
2022/09/08 10:25:50;;;;;;;9.57;5.00;;;17.30;99.90;;;;;;5069848;28;20062;-88
2022/09/08 10:28:39;;;;;;;10.18;5.18;;;17.30;99.90;;;;;;5072188;28;20052;-89
2022/09/08 10:31:36;;;;;;;8.13;4.88;;;17.30;99.90;;;;;;5088570;28;20047;-89
2022/09/08 10:34:46;;;;;;;8.25;5.32;;;17.30;99.90;;;;;;5070822;28;20044;-91
2022/09/08 10:37:23;;;;;;;9.05;5.85;;;17.30;99.90;;;;;;5088505;28;20036;-90
2022/09/08 10:40:13;;;;;;;8.98;5.35;;;17.20;99.90;;;;;;5089195;28;20036;-89
2022/09/08 10:42:44;;;;;;;8.35;4.88;;;17.20;99.90;;;;;;5079145;28;20040;-88
2022/09/08 10:45:28;;;;;;;8.73;5.10;;;17.20;99.90;;;;;;5091795;28;20060;-88
2022/09/08 10:48:16;;;;;;;8.20;5.32;;;17.20;99.90;;;;;;5089519;28;20044;-89
2022/09/08 10:50:53;;;;;;;9.48;5.35;;;17.20;99.90;;;;;;5092396;28;20122;-91
2022/09/08 10:53:46;;;;;;;8.32;4.97;;;17.20;99.90;;;;;;5098729;28;20042;-90
2022/09/08 10:56:21;;;;;;;8.13;5.22;;;17.20;99.90;;;;;;5089114;28;20455;-90
2022/09/08 10:58:55;;;;;;;7.65;4.28;;;17.20;99.90;;;;;;5089142;28;20049;-90
2022/09/08 11:01:50;;;;;;;8.63;4.10;;;17.20;99.90;;;;;;5102578;28;20386;-92
2022/09/08 11:04:40;;;;;;;6.97;4.22;;;17.20;99.90;;;;;;5102102;28;20035;-91
2022/09/08 11:07:29;;;;;;;8.25;4.40;;;17.20;99.90;;;;;;5083528;28;20127;-90
2022/09/08 11:10:20;;;;;;;7.72;4.45;;;17.20;99.90;;;;;;5081466;28;20087;-90
2022/09/08 11:13:20;;;;;;;8.52;4.05;;;17.10;99.90;;;;;;5089184;28;20051;-91
2022/09/08 11:16:22;;;;;;;8.43;4.28;;;17.20;99.90;;;;;;5088597;28;20438;-90
2022/09/08 11:19:35;;;;;;;7.93;4.00;;;17.20;99.90;;;;;;5057733;28;20063;-89
2022/09/08 11:22:31;;;;;;;8.60;4.43;;;17.20;99.90;;;;;;5085469;28;20040;-90
2022/09/08 11:25:21;;;;;;;7.43;4.40;;;17.20;99.90;;;;;;5086487;28;20384;-88
2022/09/08 11:27:47;;;;;;;11.20;5.07;;;17.20;99.90;;;;;;5070989;28;20040;-87
2022/09/08 11:30:20;;;;;;;7.80;4.95;;;17.20;99.90;;;;;;5088927;28;20055;-88
2022/09/08 11:32:51;;;;;;;8.43;4.95;;;17.20;99.90;;;;;;5085669;28;20193;-87
2022/09/08 11:35:41;;;;;;;8.50;4.70;;;17.30;99.90;;;;;;5085020;28;20040;-87
2022/09/08 11:38:26;;;;;;;8.48;5.40;;;17.30;99.90;;;;;;5098666;28;20124;-88
2022/09/08 11:41:07;;;;;;;8.43;5.05;;;17.30;99.90;;;;;;5070189;28;20111;-89
2022/09/08 11:43:55;;;;;;;9.00;5.18;;;17.30;99.90;;;;;;5088858;28;20560;-88
2022/09/08 11:46:42;;;;;;;9.38;5.45;;;17.20;99.90;;;;;;5088747;28;20069;-88
2022/09/08 11:49:36;;;;;;;7.65;4.80;;;17.30;99.90;;;;;;5071706;28;20039;-88
2022/09/08 11:52:14;;;;;;;9.27;5.32;;;17.30;99.90;;;;;;5088310;28;20153;-88
2022/09/08 11:55:15;;;;;;;8.93;5.35;;;17.40;99.90;;;;;;5089525;28;20120;-87
2022/09/08 11:57:48;;;;;;;;;;;17.40;99.90;;;;;;5069034;28;20080;-87
2022/09/08 12:00:22;;;;;;;8.98;5.70;;;17.40;99.90;;;;;;5052475;28;19959;-88
2022/09/08 12:03:03;;;;;;;8.82;5.85;;;17.40;99.90;;;;;;5065180;28;20037;-88
2022/09/08 12:05:54;;;;;;;9.05;6.05;;;17.50;99.90;;;;;;5082545;28;20192;-89
2022/09/08 12:09:03;;;;;;;12.15;6.80;;;17.50;99.90;;;;;;5071790;28;20054;-88
2022/09/08 12:12:03;;;;;;;9.90;6.68;;;17.50;99.90;;;;;;5069848;28;20078;-89
2022/09/08 12:15:01;;;;;;;11.82;7.07;;;17.50;99.90;;;;;;5088790;28;20070;-88
2022/09/08 12:17:39;;;;;;;12.02;8.27;;;17.50;99.90;;;;;;5088025;28;20456;-89
2022/09/08 12:20:42;;;;;;;10.85;8.15;;;17.60;99.90;;;;;;5087976;28;20048;-90
2022/09/08 12:23:24;;;;;;;12.35;9.10;;;17.60;99.90;;;;;;5087741;28;20040;-89
2022/09/08 12:26:15;;;;;;;11.50;8.43;;;17.60;99.90;;;;;;5088895;28;20048;-90
2022/09/08 12:28:55;;;;;;;12.93;9.85;;;17.70;99.90;;;;;;5090305;28;20446;-90
2022/09/08 12:31:33;;;;;;;12.00;9.60;;;17.80;99.90;;;;;;5088744;28;20121;-90
2022/09/08 12:34:24;;;;;;;12.18;10.25;;;17.80;99.90;;;;;;5087805;28;20104;-90
2022/09/08 12:36:53;;;;;;;14.63;10.83;;;17.90;99.90;;;;;;5055364;28;20397;-92
2022/09/08 12:39:30;;;;;;;13.63;11.10;;;18.00;99.90;;;;;;5090837;28;20304;-89
2022/09/08 12:42:17;;;;;;;16.55;12.82;;;18.00;99.90;;;;;;5090258;28;20036;-86
2022/09/08 12:45:17;;;;;;;14.73;12.60;;;18.20;99.90;;;;;;5089366;28;20043;-87
2022/09/08 12:48:09;;;;;;;15.65;13.10;;;18.30;99.90;;;;;;5083833;28;20056;-88
2022/09/08 12:50:46;;;;;;;15.70;13.70;;;18.30;99.90;;;;;;5093229;28;20123;-88
2022/09/08 12:53:49;;;;;;;16.80;13.82;;;18.30;99.90;;;;;;5083786;28;20039;-88
2022/09/08 12:56:40;;;;;;;17.10;14.20;;;18.40;99.90;;;;;;5111598;28;20549;-87
2022/09/08 12:59:28;;;;;;;17.35;14.88;;;18.40;99.90;;;;;;5074472;28;20071;-87
2022/09/08 13:02:27;;;;;;;17.48;14.82;;;18.50;99.90;;;;;;5094671;28;20048;-87
2022/09/08 13:05:24;;;;;;;18.23;15.32;;;18.50;99.90;;;;;;5083577;28;20381;-88
2022/09/08 13:08:15;;;;;;;17.80;15.60;;;18.50;99.90;;;;;;5089174;28;20091;-86
2022/09/08 13:10:45;;;;;;;17.55;15.05;;;18.60;99.90;;;;;;5090081;28;20421;-86
2022/09/08 13:13:40;;;;;;;19.08;16.98;;;18.60;99.90;;;;;;5097226;28;20094;-86
2022/09/08 13:16:44;;;;;;;18.45;15.90;;;18.60;99.90;;;;;;5097568;28;20044;-87
2022/09/08 13:19:27;;;;;;;18.90;14.68;;;18.60;99.90;;;;;;5022150;28;20137;-86
2022/09/08 13:22:20;;;;;;;17.67;15.55;;;18.60;99.90;;;;;;4993640;28;20420;-86